Time;durP1;ratioP1;P1;durP2;ratioP2;P2;SDS_P1;SDS_P2;PMS_P1;PMS_P2;Temp;Humidity;BMP_temperature;BMP_pressure;BME280_temperature;BME280_humidity;BME280_pressure;Samples;Min_cycle;Max_cycle;Signal;HPM_P1;HPM_P2
2021/05/17 00:02:01;;;;;;;18.77;16.87;;;9.30;99.90;;;;;;6215290;23;20475;-85
2021/05/17 00:04:33;;;;;;;17.70;13.60;;;9.40;99.90;;;;;;6214696;23;20424;-87
2021/05/17 00:07:06;;;;;;;16.13;11.40;;;9.50;99.90;;;;;;6226867;23;20436;-86
2021/05/17 00:09:37;;;;;;;12.90;9.77;;;9.60;99.90;;;;;;6216934;23;20400;-85
2021/05/17 00:12:06;;;;;;;16.60;12.23;;;9.60;99.90;;;;;;6216966;23;20398;-85
2021/05/17 00:14:34;;;;;;;12.70;10.27;;;9.70;99.90;;;;;;6217101;23;20404;-86
2021/05/17 00:17:01;;;;;;;18.60;17.03;;;9.70;99.90;;;;;;6226628;23;20466;-86
2021/05/17 00:19:28;;;;;;;20.73;18.93;;;9.60;99.90;;;;;;6225401;23;20408;-85
2021/05/17 00:21:54;;;;;;;21.90;20.20;;;9.70;99.90;;;;;;6216889;23;20439;-86
2021/05/17 00:24:21;;;;;;;20.47;18.87;;;9.80;99.90;;;;;;6226852;23;20411;-85
2021/05/17 00:26:48;;;;;;;19.43;17.83;;;9.90;99.90;;;;;;6216969;23;20491;-85
2021/05/17 00:29:15;;;;;;;23.70;21.97;;;9.80;99.90;;;;;;6226613;23;20428;-86
2021/05/17 00:31:43;;;;;;;34.10;31.70;;;9.80;99.90;;;;;;6226333;23;20496;-86
2021/05/17 00:34:12;;;;;;;50.73;48.13;;;9.80;99.90;;;;;;6215657;23;20404;-86
2021/05/17 00:36:40;;;;;;;61.47;58.33;;;9.80;99.90;;;;;;6216746;23;20951;-90
2021/05/17 00:39:09;;;;;;;76.47;72.97;;;9.80;99.90;;;;;;6216767;23;20400;-88
2021/05/17 00:41:36;;;;;;;94.83;90.53;;;9.80;99.90;;;;;;6216265;23;20896;-84
2021/05/17 00:44:03;;;;;;;108.67;103.90;;;9.70;99.90;;;;;;6226923;23;20762;-86
2021/05/17 00:46:31;;;;;;;117.00;111.57;;;9.80;99.90;;;;;;6226920;23;20487;-84
2021/05/17 00:48:58;;;;;;;128.87;123.17;;;9.70;99.90;;;;;;6225537;23;20498;-82
2021/05/17 00:51:26;;;;;;;144.67;138.40;;;9.70;99.90;;;;;;6216625;23;20428;-84
2021/05/17 00:53:52;;;;;;;145.53;139.23;;;9.70;99.90;;;;;;6226234;23;20462;-84
2021/05/17 00:56:20;;;;;;;159.13;152.30;;;9.90;99.90;;;;;;6216299;23;20519;-84
2021/05/17 00:58:47;;;;;;;159.97;153.17;;;9.70;99.90;;;;;;6226767;23;20466;-85
2021/05/17 01:01:16;;;;;;;161.77;154.77;;;9.90;99.90;;;;;;6226404;23;20406;-84
2021/05/17 01:03:43;;;;;;;158.80;151.57;;;9.80;99.90;;;;;;6214610;23;20468;-84
2021/05/17 01:06:11;;;;;;;158.43;151.60;;;9.70;99.90;;;;;;6215916;23;20437;-84
2021/05/17 01:08:45;;;;;;;154.10;147.43;;;9.70;99.90;;;;;;6216107;23;20401;-85
2021/05/17 01:11:12;;;;;;;152.53;145.67;;;9.90;99.90;;;;;;6216327;23;20396;-83
2021/05/17 01:13:41;;;;;;;156.27;149.13;;;9.80;99.90;;;;;;6226658;23;20462;-85
2021/05/17 01:16:08;;;;;;;154.80;148.17;;;9.80;99.90;;;;;;6226336;23;20483;-85
2021/05/17 01:18:35;;;;;;;147.40;140.87;;;9.80;99.90;;;;;;6224638;23;20416;-85
2021/05/17 01:21:03;;;;;;;151.43;145.07;;;9.90;99.90;;;;;;6226462;23;20887;-85
2021/05/17 01:23:44;;;;;;;147.37;140.77;;;9.70;99.90;;;;;;6216303;23;20408;-85
2021/05/17 01:26:12;;;;;;;145.60;138.90;;;9.70;99.90;;;;;;6225966;23;20487;-85
2021/05/17 01:28:42;;;;;;;136.70;130.37;;;9.70;99.90;;;;;;6215811;23;20888;-85
2021/05/17 01:31:10;;;;;;;126.33;120.77;;;9.60;99.90;;;;;;6216204;23;20432;-85
2021/05/17 01:33:38;;;;;;;120.60;115.37;;;9.50;99.90;;;;;;6224824;23;20416;-85
2021/05/17 01:36:06;;;;;;;120.63;115.40;;;9.60;99.90;;;;;;6226119;23;20420;-85
2021/05/17 01:38:36;;;;;;;121.57;116.20;;;9.50;99.90;;;;;;6225994;23;20466;-85
2021/05/17 01:41:08;;;;;;;117.70;112.40;;;9.30;99.90;;;;;;6225926;23;20404;-84
2021/05/17 01:43:38;;;;;;;122.47;117.03;;;9.40;99.90;;;;;;6216087;23;20396;-85
2021/05/17 01:46:08;;;;;;;125.87;120.33;;;9.60;99.90;;;;;;6225840;23;20400;-85
2021/05/17 01:48:38;;;;;;;119.97;114.67;;;9.80;99.90;;;;;;6214211;23;20526;-83
2021/05/17 01:51:08;;;;;;;120.27;115.07;;;9.60;99.90;;;;;;6216136;23;20891;-85
2021/05/17 01:53:41;;;;;;;99.70;95.37;;;9.80;99.90;;;;;;6215872;23;20888;-84
2021/05/17 01:56:08;;;;;;;82.70;78.73;;;9.80;99.90;;;;;;6225410;23;20412;-85
2021/05/17 01:58:36;;;;;;;82.03;78.37;;;9.80;99.90;;;;;;6226140;23;20423;-85
2021/05/17 02:01:09;;;;;;;82.07;78.33;;;9.80;99.90;;;;;;6215628;23;20438;-85
2021/05/17 02:03:40;;;;;;;69.80;66.47;;;9.90;99.90;;;;;;6224581;23;20989;-85
2021/05/17 02:06:09;;;;;;;73.80;70.27;;;9.90;99.90;;;;;;6215505;23;20436;-84
2021/05/17 02:08:40;;;;;;;71.80;68.37;;;9.90;99.90;;;;;;6225649;23;20432;-85
2021/05/17 02:11:10;;;;;;;72.03;68.60;;;9.90;99.90;;;;;;6215937;23;20396;-83
2021/05/17 02:13:38;;;;;;;77.77;74.10;;;9.90;99.90;;;;;;6225532;23;20430;-85
2021/05/17 02:16:06;;;;;;;72.03;68.57;;;9.80;99.90;;;;;;6225549;23;20404;-85
2021/05/17 02:18:37;;;;;;;70.57;66.87;;;9.90;99.90;;;;;;6224618;23;20411;-85
2021/05/17 02:21:04;;;;;;;70.63;67.23;;;9.80;99.90;;;;;;6215186;23;20412;-84
2021/05/17 02:23:31;;;;;;;76.93;73.17;;;9.70;99.90;;;;;;6225240;23;20442;-85
2021/05/17 02:25:59;;;;;;;75.93;72.17;;;9.80;99.90;;;;;;6225325;23;20491;-85
2021/05/17 02:28:26;;;;;;;82.60;78.67;;;9.70;99.90;;;;;;6215728;23;20411;-85
2021/05/17 02:30:55;;;;;;;79.33;75.47;;;9.90;99.90;;;;;;6215725;23;20411;-85
2021/05/17 02:33:22;;;;;;;69.27;65.87;;;9.80;99.90;;;;;;6225099;23;20404;-82
2021/05/17 02:35:48;;;;;;;67.27;64.00;;;9.80;99.90;;;;;;6214717;23;20396;-86
2021/05/17 02:38:18;;;;;;;61.63;58.53;;;9.80;99.90;;;;;;6215048;23;20940;-83
2021/05/17 02:40:45;;;;;;;61.37;58.30;;;9.80;99.90;;;;;;6215203;23;20881;-84
2021/05/17 02:43:13;;;;;;;68.23;64.83;;;9.80;99.90;;;;;;6225146;23;20404;-85
2021/05/17 02:45:41;;;;;;;63.97;60.67;;;9.80;99.90;;;;;;6215081;23;20403;-86
2021/05/17 02:48:09;;;;;;;58.70;55.77;;;10.00;99.90;;;;;;6225399;23;20404;-84
2021/05/17 02:50:37;;;;;;;71.40;68.00;;;10.00;99.90;;;;;;6214018;23;20403;-84
2021/05/17 02:53:25;;;;;;;59.50;56.57;;;9.90;99.90;;;;;;6214927;23;20723;-84
2021/05/17 02:55:54;;;;;;;60.37;57.37;;;9.90;99.90;;;;;;6215614;23;20476;-83
2021/05/17 02:58:23;;;;;;;59.63;56.70;;;9.80;99.90;;;;;;6225039;23;20443;-83
2021/05/17 03:00:52;;;;;;;67.10;63.90;;;10.00;99.90;;;;;;6214912;23;20904;-83
2021/05/17 03:03:23;;;;;;;65.90;62.77;;;9.80;99.90;;;;;;6215146;23;20436;-82
2021/05/17 03:05:56;;;;;;;65.57;62.27;;;9.80;99.90;;;;;;6215333;23;20423;-83
2021/05/17 03:08:27;;;;;;;72.00;68.53;;;9.90;99.90;;;;;;6225227;23;20963;-82
2021/05/17 03:10:59;;;;;;;78.57;74.67;;;9.80;99.90;;;;;;6215167;23;20400;-83
2021/05/17 03:13:27;;;;;;;70.47;66.47;;;9.90;99.90;;;;;;6215266;23;20782;-85
2021/05/17 03:15:54;;;;;;;68.20;64.93;;;10.10;99.90;;;;;;6214760;23;20401;-83
2021/05/17 03:18:20;;;;;;;60.70;57.57;;;10.00;99.90;;;;;;6224755;23;20427;-83
2021/05/17 03:20:47;;;;;;;59.10;55.90;;;10.00;99.90;;;;;;6224158;23;20503;-83
2021/05/17 03:23:17;;;;;;;60.47;57.37;;;9.90;99.90;;;;;;6225360;23;20412;-84
2021/05/17 03:25:46;;;;;;;66.50;62.80;;;10.00;99.90;;;;;;6214458;23;20431;-83
2021/05/17 03:28:13;;;;;;;54.83;52.07;;;10.00;99.90;;;;;;6214876;23;20954;-82
2021/05/17 03:30:40;;;;;;;51.33;48.27;;;10.00;99.90;;;;;;6215139;23;20404;-83
2021/05/17 03:33:07;;;;;;;52.80;49.70;;;10.00;99.90;;;;;;6215148;23;20427;-84
2021/05/17 03:35:33;;;;;;;56.57;53.63;;;10.10;99.90;;;;;;6224081;23;20888;-83
2021/05/17 03:38:00;;;;;;;63.27;60.17;;;10.00;99.90;;;;;;6225274;23;20480;-83
2021/05/17 03:40:26;;;;;;;63.53;60.13;;;10.00;99.90;;;;;;6217466;23;20415;-83
2021/05/17 03:42:52;;;;;;;67.17;63.40;;;10.00;99.90;;;;;;6227101;23;20415;-84
2021/05/17 03:45:19;;;;;;;63.60;60.40;;;10.00;99.90;;;;;;6217367;23;20401;-83
2021/05/17 03:47:46;;;;;;;68.27;64.77;;;10.00;99.90;;;;;;6226893;23;20759;-85
2021/05/17 03:50:13;;;;;;;69.37;65.57;;;9.90;99.90;;;;;;6215168;23;20717;-82
2021/05/17 03:52:40;;;;;;;74.23;70.67;;;10.00;99.90;;;;;;6216518;23;20415;-83
2021/05/17 03:55:08;;;;;;;68.33;64.53;;;9.80;99.90;;;;;;6227225;23;20497;-83
2021/05/17 03:57:35;;;;;;;67.47;63.97;;;10.00;99.90;;;;;;6217210;23;20515;-83
2021/05/17 04:00:01;;;;;;;64.37;61.23;;;9.90;99.90;;;;;;6217211;23;20400;-83
2021/05/17 04:02:28;;;;;;;64.40;61.20;;;10.00;99.90;;;;;;6217051;23;20435;-83
2021/05/17 04:05:04;;;;;;;66.37;63.07;;;10.00;99.90;;;;;;6215874;23;20423;-82
2021/05/17 04:07:51;;;;;;;64.73;61.43;;;10.00;99.90;;;;;;6226650;23;20448;-82
2021/05/17 04:13:21;;;;;;;68.60;65.20;;;10.10;99.90;;;;;;6226836;23;20430;-83
2021/05/17 04:15:49;;;;;;;75.97;72.37;;;10.20;99.90;;;;;;6216881;23;20799;-82
2021/05/17 04:18:17;;;;;;;82.77;79.00;;;10.20;99.90;;;;;;6216976;23;20480;-82
2021/05/17 04:20:45;;;;;;;78.57;74.90;;;10.30;99.90;;;;;;6215594;23;20412;-84
2021/05/17 04:23:11;;;;;;;84.80;80.90;;;10.30;99.90;;;;;;6216335;23;20924;-82
2021/05/17 04:25:38;;;;;;;82.93;78.43;;;10.30;99.90;;;;;;6216639;23;20451;-82
2021/05/17 04:28:04;;;;;;;71.90;68.30;;;10.30;99.90;;;;;;6216169;23;20408;-83
2021/05/17 04:30:31;;;;;;;62.20;59.00;;;10.40;99.90;;;;;;6216775;23;20408;-82
2021/05/17 04:32:57;;;;;;;56.27;53.37;;;10.30;99.90;;;;;;6216787;23;20408;-83
2021/05/17 04:35:24;;;;;;;55.27;52.37;;;10.50;99.90;;;;;;6225752;23;20506;-83
2021/05/17 04:37:51;;;;;;;44.67;42.13;;;10.40;99.90;;;;;;6226436;23;20519;-83
2021/05/17 04:40:18;;;;;;;44.83;42.33;;;10.40;99.90;;;;;;6226311;23;20491;-83
2021/05/17 04:42:44;;;;;;;47.70;44.90;;;10.40;99.90;;;;;;6216895;23;20400;-83
2021/05/17 04:45:12;;;;;;;51.07;48.30;;;10.70;99.90;;;;;;6216125;23;20404;-83
2021/05/17 04:47:38;;;;;;;48.67;45.23;;;10.60;99.90;;;;;;6226792;23;20422;-84
2021/05/17 04:50:06;;;;;;;46.30;43.70;;;10.70;99.90;;;;;;6214301;23;20962;-83
2021/05/17 04:52:33;;;;;;;41.70;39.10;;;10.90;99.90;;;;;;6226417;23;20413;-83
2021/05/17 04:55:00;;;;;;;41.37;38.87;;;10.90;99.90;;;;;;6216755;23;20427;-83
2021/05/17 04:57:27;;;;;;;50.07;47.17;;;11.00;99.90;;;;;;6216612;23;20455;-83
2021/05/17 04:59:53;;;;;;;40.40;38.00;;;11.00;99.90;;;;;;6216555;23;20404;-84
2021/05/17 05:02:20;;;;;;;38.60;36.20;;;11.10;99.90;;;;;;6216646;23;20510;-84
2021/05/17 05:04:46;;;;;;;38.40;36.00;;;11.30;99.90;;;;;;6214935;23;20439;-83
2021/05/17 05:07:14;;;;;;;25.00;22.80;;;11.30;99.90;;;;;;6226311;23;20523;-84
2021/05/17 05:09:40;;;;;;;21.80;19.90;;;11.30;99.90;;;;;;6226446;23;20436;-84
2021/05/17 05:12:08;;;;;;;17.53;12.83;;;11.40;99.90;;;;;;6216586;23;20396;-84
2021/05/17 05:14:34;;;;;;;17.00;15.10;;;11.40;99.90;;;;;;6215818;23;20954;-83
2021/05/17 05:17:01;;;;;;;16.10;14.40;;;11.30;99.90;;;;;;6226522;23;20432;-84
2021/05/17 05:19:27;;;;;;;21.10;19.17;;;11.40;99.90;;;;;;6214675;23;20407;-83
2021/05/17 05:21:53;;;;;;;17.50;15.70;;;11.50;99.90;;;;;;6216030;23;20407;-82
2021/05/17 05:24:20;;;;;;;19.50;16.93;;;11.50;99.90;;;;;;6216299;23;20451;-82
2021/05/17 05:26:56;;;;;;;17.17;15.37;;;11.60;99.90;;;;;;6216020;23;20896;-80
2021/05/17 05:29:30;;;;;;;15.90;12.90;;;11.50;99.90;;;;;;6216313;23;20768;-81
2021/05/17 05:31:59;;;;;;;21.33;11.37;;;11.60;99.90;;;;;;6216064;23;20404;-85
2021/05/17 05:34:27;;;;;;;15.70;10.07;;;11.70;99.90;;;;;;6224196;23;20423;-84
2021/05/17 05:36:58;;;;;;;14.93;7.93;;;11.70;99.90;;;;;;6215675;23;20923;-83
2021/05/17 05:39:27;;;;;;;14.10;7.67;;;11.60;99.90;;;;;;6226347;23;20404;-84
2021/05/17 05:41:54;;;;;;;18.23;8.50;;;11.80;99.90;;;;;;6225756;23;20519;-83
2021/05/17 05:44:20;;;;;;;14.83;6.07;;;11.70;99.90;;;;;;6225725;23;20716;-85
2021/05/17 05:46:47;;;;;;;13.50;5.83;;;11.70;99.90;;;;;;6216194;23;20457;-86
2021/05/17 05:49:16;;;;;;;16.00;5.40;;;11.70;99.90;;;;;;6214526;23;20440;-84
2021/05/17 05:51:47;;;;;;;15.30;5.10;;;11.70;99.90;;;;;;6216122;23;20785;-84
2021/05/17 05:54:15;;;;;;;13.50;4.20;;;11.90;99.90;;;;;;6215693;23;20451;-85
2021/05/17 05:56:42;;;;;;;13.67;3.07;;;11.80;99.90;;;;;;6225529;23;20930;-85
2021/05/17 05:59:08;;;;;;;13.37;4.17;;;12.00;99.90;;;;;;6225715;23;20466;-84
2021/05/17 06:01:42;;;;;;;13.57;3.53;;;11.90;99.90;;;;;;6215088;23;20458;-85
2021/05/17 06:04:11;;;;;;;13.60;4.20;;;12.10;99.90;;;;;;6214445;23;20401;-84
2021/05/17 06:06:39;;;;;;;15.70;3.27;;;12.10;99.90;;;;;;6225541;23;20440;-84
2021/05/17 06:09:08;;;;;;;13.37;2.77;;;12.30;99.90;;;;;;6225870;23;20404;-85
2021/05/17 06:11:35;;;;;;;27.40;2.87;;;12.40;99.80;;;;;;6215594;23;20404;-84
2021/05/17 06:14:03;;;;;;;15.90;2.27;;;12.40;97.80;;;;;;6215876;23;20407;-85
2021/05/17 06:16:31;;;;;;;13.70;2.67;;;12.40;97.40;;;;;;6215870;23;20400;-85
2021/05/17 06:19:00;;;;;;;14.10;2.20;;;12.40;99.00;;;;;;6214471;23;20407;-85
2021/05/17 06:21:28;;;;;;;18.43;2.60;;;12.30;98.10;;;;;;6215900;23;20411;-85
2021/05/17 06:23:57;;;;;;;14.77;2.33;;;12.30;99.20;;;;;;6225984;23;20408;-85
2021/05/17 06:26:24;;;;;;;14.33;2.23;;;12.30;98.30;;;;;;6225698;23;20455;-85
2021/05/17 06:35:32;;;;;;;;;;;;;;;;;;;;;
2021/05/17 06:38:16;;;;;;;13.40;2.00;;;12.90;93.20;;;;;;6225385;23;20950;-85
2021/05/17 06:41:20;;;;;;;;;;;;;;;;;;;;;
2021/05/17 06:44:31;;;;;;;;;;;;;;;;;;;;;
2021/05/17 06:47:28;;;;;;;17.70;1.40;;;13.00;87.30;;;;;;6217184;23;20454;-83
2021/05/17 06:57:18;;;;;;;15.27;1.70;;;13.40;72.90;;;;;;6128538;23;20437;-84
2021/05/17 07:00:11;;;;;;;15.97;1.40;;;13.60;66.00;;;;;;6045624;23;20738;-86
2021/05/17 07:03:18;;;;;;;;;;;;;;;;;;;;;
2021/05/17 08:29:03;;;;;;;;;;;;;;;;;;;;;
2021/05/17 08:50:15;;;;;;;20.70;2.10;;;14.60;40.80;;;;;;5982480;23;20798;-82
2021/05/17 08:52:55;;;;;;;16.03;1.30;;;14.60;40.30;;;;;;6122825;23;20170;-82
2021/05/17 08:55:25;;;;;;;15.93;1.30;;;14.60;42.00;;;;;;6123012;23;20402;-82
2021/05/17 08:57:58;;;;;;;15.97;1.07;;;14.60;42.20;;;;;;6122623;23;20583;-83
2021/05/17 09:00:49;;;;;;;17.17;1.30;;;14.70;40.90;;;;;;6124229;23;20813;-84
2021/05/17 09:03:24;;;;;;;17.27;1.40;;;15.20;38.80;;;;;;6123894;23;20407;-83
2021/05/17 09:05:53;;;;;;;19.27;1.30;;;15.90;31.40;;;;;;6203201;23;20419;-86
2021/05/17 09:08:25;;;;;;;19.73;1.47;;;16.50;28.10;;;;;;6226371;23;20408;-84
2021/05/17 09:10:52;;;;;;;21.13;1.20;;;17.10;25.00;;;;;;6216168;23;20450;-84
2021/05/17 09:13:27;;;;;;;22.27;1.30;;;17.50;20.50;;;;;;6226136;23;20396;-83
2021/05/17 09:15:55;;;;;;;24.13;1.57;;;17.20;20.30;;;;;;6216081;23;20855;-78
2021/05/17 09:18:32;;;;;;;23.90;1.40;;;17.20;21.20;;;;;;6216448;23;20520;-83
2021/05/17 09:21:05;;;;;;;24.77;1.60;;;17.20;18.10;;;;;;6216342;23;20440;-86
2021/05/17 09:23:36;;;;;;;23.67;1.50;;;17.20;18.70;;;;;;6216479;23;20396;-86
2021/05/17 09:26:07;;;;;;;27.13;1.63;;;17.30;19.60;;;;;;6226006;23;20912;-83
2021/05/17 09:28:44;;;;;;;25.33;1.73;;;17.30;18.80;;;;;;6226221;23;20436;-87
2021/05/17 09:31:19;;;;;;;28.20;2.87;;;17.50;17.90;;;;;;6226378;23;20407;-85
2021/05/17 09:33:47;;;;;;;26.80;1.70;;;16.80;15.80;;;;;;6224417;23;20419;-84
2021/05/17 09:36:25;;;;;;;28.67;1.97;;;17.00;17.40;;;;;;6225942;23;20454;-86
2021/05/17 09:39:00;;;;;;;28.10;1.30;;;17.30;15.50;;;;;;6226328;23;20435;-85
2021/05/17 09:41:43;;;;;;;29.93;1.50;;;17.10;16.60;;;;;;6226077;23;20419;-85
2021/05/17 09:44:10;;;;;;;29.53;1.90;;;18.40;16.30;;;;;;6226290;23;20767;-86
2021/05/17 09:51:10;;;;;;;;;;;;;;;;;;;;;
2021/05/17 09:58:07;;;;;;;;;;;;;;;;;;;;;
2021/05/17 10:01:32;;;;;;;;;;;;;;;;;;;;;
2021/05/17 10:04:04;;;;;;;33.10;2.67;;;18.60;11.80;;;;;;5934745;23;20422;-81
2021/05/17 10:06:32;;;;;;;30.80;1.93;;;15.20;99.90;;;;;;6132294;23;20438;-81
2021/05/17 10:09:29;;;;;;;28.33;1.93;;;14.20;99.90;;;;;;6215648;23;20919;-83
2021/05/17 10:11:59;;;;;;;23.93;2.20;;;13.60;99.90;;;;;;6216113;23;20412;-84
2021/05/17 10:17:59;;;;;;;;;;;;;;;;;;;;;
2021/05/17 10:20:34;;;;;;;20.80;5.67;;;13.80;99.90;;;;;;6213715;23;20403;-82
2021/05/17 10:23:12;;;;;;;19.60;2.33;;;14.00;99.90;;;;;;6215838;23;20488;-83
2021/05/17 10:26:11;;;;;;;20.63;2.80;;;14.00;99.90;;;;;;6215465;23;20396;-82
2021/05/17 10:28:39;;;;;;;15.80;1.43;;;14.40;99.90;;;;;;6215876;23;20420;-83
2021/05/17 10:31:18;;;;;;;15.03;1.30;;;14.20;95.50;;;;;;6215896;23;20461;-81
2021/05/17 10:34:05;;;;;;;20.90;1.70;;;14.20;89.90;;;;;;6214107;23;20474;-85
2021/05/17 10:36:51;;;;;;;17.53;1.50;;;14.70;95.30;;;;;;6172871;23;20486;-85
2021/05/17 10:39:36;;;;;;;17.33;1.20;;;14.50;84.10;;;;;;6215718;23;20404;-84
2021/05/17 10:42:29;;;;;;;18.80;2.10;;;14.10;76.30;;;;;;6215182;23;20899;-83
2021/05/17 10:48:23;;;;;;;14.80;1.97;;;13.60;99.90;;;;;;6215405;23;20419;-83
2021/05/17 10:51:15;;;;;;;16.20;2.33;;;14.00;98.70;;;;;;6214669;23;20427;-81
2021/05/17 10:57:16;;;;;;;15.57;1.30;;;14.40;61.00;;;;;;6225796;23;20408;-85
2021/05/17 11:02:52;;;;;;;14.80;1.13;;;14.30;57.80;;;;;;6215365;23;20395;-80
2021/05/17 11:05:20;;;;;;;15.23;1.30;;;14.20;60.30;;;;;;6220129;23;20775;-82
2021/05/17 11:07:52;;;;;;;15.17;1.10;;;14.10;62.80;;;;;;6215171;23;20427;-82
2021/05/17 11:10:36;;;;;;;15.17;1.20;;;14.00;61.00;;;;;;6215667;23;20403;-81
2021/05/17 11:13:30;;;;;;;15.40;1.20;;;13.80;67.20;;;;;;6225302;23;20400;-84
2021/05/17 11:16:03;;;;;;;14.40;1.80;;;13.60;64.30;;;;;;6225333;23;20419;-79
2021/05/17 11:18:51;;;;;;;14.60;1.87;;;13.70;67.20;;;;;;6224360;23;20444;-79
2021/05/17 11:21:25;;;;;;;17.00;2.17;;;13.90;99.90;;;;;;6225646;23;20408;-80
2021/05/17 11:24:06;;;;;;;19.33;1.90;;;14.10;78.50;;;;;;6215532;23;20991;-80
2021/05/17 11:26:58;;;;;;;16.60;3.13;;;13.80;91.40;;;;;;6215547;23;20400;-84
2021/05/17 11:30:04;;;;;;;15.47;2.27;;;13.80;99.90;;;;;;6215582;23;20436;-81
2021/05/17 11:32:47;;;;;;;18.47;2.33;;;13.00;99.90;;;;;;6225470;23;20973;-81
2021/05/17 11:35:21;;;;;;;15.10;4.30;;;12.70;99.90;;;;;;6209040;23;20424;-82
2021/05/17 11:38:06;;;;;;;15.47;6.73;;;12.30;99.90;;;;;;6225654;23;20485;-82
2021/05/17 11:40:33;;;;;;;18.20;9.87;;;11.90;99.90;;;;;;6215097;23;20801;-82
2021/05/17 11:43:00;;;;;;;17.17;13.73;;;11.80;99.90;;;;;;6215428;23;20748;-81
2021/05/17 11:45:27;;;;;;;18.53;15.17;;;11.70;99.90;;;;;;6225518;23;20418;-83
2021/05/17 11:48:00;;;;;;;26.70;24.40;;;11.90;99.90;;;;;;6225692;23;20711;-83
2021/05/17 11:50:32;;;;;;;41.87;39.17;;;12.20;99.90;;;;;;6213481;23;20939;-83
2021/05/17 11:53:13;;;;;;;;;;;;;;;;;;;;;
2021/05/17 11:55:52;;;;;;;42.80;40.03;;;12.70;99.90;;;;;;6215730;23;20404;-84
2021/05/17 11:58:25;;;;;;;24.87;22.73;;;13.00;99.90;;;;;;6224931;23;20831;-84
2021/05/17 12:01:19;;;;;;;27.97;25.60;;;13.70;99.90;;;;;;6217266;23;20400;-84
2021/05/17 12:04:28;;;;;;;;;;;;;;;;;;;;;
2021/05/17 12:07:38;;;;;;;18.23;7.70;;;15.30;99.90;;;;;;6139176;23;20432;-84
2021/05/17 12:13:18;;;;;;;19.03;4.70;;;14.90;85.70;;;;;;6207752;23;20419;-84
2021/05/17 12:15:51;;;;;;;22.60;3.90;;;15.80;91.10;;;;;;6226767;23;20431;-85
2021/05/17 12:18:19;;;;;;;18.37;2.00;;;16.70;72.20;;;;;;6217023;23;20440;-84
2021/05/17 12:20:48;;;;;;;21.83;2.20;;;16.80;61.90;;;;;;6215469;23;20397;-84
2021/05/17 12:23:16;;;;;;;23.63;1.77;;;17.40;55.20;;;;;;6227057;23;20424;-84
2021/05/17 12:26:18;;;;;;;22.23;2.20;;;17.40;51.00;;;;;;6217130;23;20415;-85
2021/05/17 12:29:10;;;;;;;24.07;2.40;;;17.70;42.40;;;;;;6207508;23;20415;-86
2021/05/17 12:38:25;;;;;;;25.03;2.20;;;17.20;40.10;;;;;;6212495;23;20757;-84
2021/05/17 12:41:25;;;;;;;;;;;;;;;;;;;;;
2021/05/17 12:43:53;;;;;;;28.07;3.10;;;16.30;54.30;;;;;;6178398;23;20991;-83
2021/05/17 12:46:19;;;;;;;24.40;2.93;;;15.50;58.80;;;;;;6226553;23;20554;-84
2021/05/17 12:48:49;;;;;;;22.47;2.93;;;14.90;73.60;;;;;;6225413;23;20521;-84
2021/05/17 12:51:18;;;;;;;22.70;2.90;;;15.00;91.30;;;;;;6216629;23;20483;-84
2021/05/17 12:54:13;;;;;;;22.00;3.17;;;15.10;84.80;;;;;;6216869;23;20404;-84
2021/05/17 12:56:55;;;;;;;23.60;3.23;;;15.70;75.00;;;;;;6216341;23;20404;-83
2021/05/17 13:02:17;;;;;;;23.57;3.50;;;15.70;58.60;;;;;;6204821;23;20445;-85
2021/05/17 13:05:18;;;;;;;;;;;;;;;;;;;;;
2021/05/17 13:08:14;;;;;;;26.70;2.80;;;15.10;61.70;;;;;;6218217;23;20489;-86
2021/05/17 13:11:20;;;;;;;;;;;;;;;;;;;;;
2021/05/17 13:13:53;;;;;;;22.10;3.50;;;14.90;69.30;;;;;;6181638;23;20415;-83
2021/05/17 13:16:35;;;;;;;20.60;5.67;;;14.20;99.80;;;;;;6216446;23;20405;-86
2021/05/17 13:19:46;;;;;;;29.47;4.67;;;13.40;99.90;;;;;;6224772;23;20450;-88
2021/05/17 13:31:43;;;;;;;18.40;3.90;;;13.60;99.90;;;;;;6216213;23;20473;-89
2021/05/17 13:34:21;;;;;;;18.87;3.50;;;14.10;99.30;;;;;;6224518;23;20404;-82
2021/05/17 13:36:54;;;;;;;17.60;4.53;;;14.20;98.00;;;;;;6148653;23;20408;-86
2021/05/17 13:39:32;;;;;;;18.23;3.37;;;14.70;96.90;;;;;;6216114;23;20443;-87
2021/05/17 13:42:00;;;;;;;18.23;3.20;;;15.40;77.20;;;;;;6226073;23;20774;-86
2021/05/17 13:44:28;;;;;;;20.30;2.20;;;16.90;63.70;;;;;;6226246;23;20412;-87
2021/05/17 13:46:57;;;;;;;21.37;2.50;;;16.90;52.50;;;;;;6216174;23;20396;-87
2021/05/17 13:49:31;;;;;;;22.40;2.80;;;16.30;51.30;;;;;;6214657;23;20495;-86
2021/05/17 13:52:02;;;;;;;24.57;4.40;;;15.70;57.00;;;;;;6215778;23;20407;-87
2021/05/17 13:54:31;;;;;;;22.93;4.10;;;15.10;76.20;;;;;;6215823;23;20458;-87
2021/05/17 13:56:57;;;;;;;20.50;3.20;;;14.90;81.80;;;;;;6226037;23;20400;-86
2021/05/17 13:59:27;;;;;;;21.77;3.80;;;15.20;99.80;;;;;;6215939;23;20455;-87
2021/05/17 14:01:54;;;;;;;26.23;3.63;;;15.50;96.70;;;;;;6226146;23;20486;-81
2021/05/17 14:07:58;;;;;;;;;;;;;;;;;;;;;
2021/05/17 14:10:41;;;;;;;23.57;5.40;;;15.80;66.20;;;;;;6226157;23;20396;-89
2021/05/17 14:22:53;;;;;;;25.97;4.37;;;14.80;59.00;;;;;;6177729;23;20416;-87
2021/05/17 14:25:25;;;;;;;25.17;5.17;;;14.60;73.50;;;;;;6178791;23;20412;-87
2021/05/17 14:28:06;;;;;;;23.30;6.67;;;13.50;99.90;;;;;;6215486;23;20430;-87
2021/05/17 14:30:36;;;;;;;24.23;8.87;;;12.90;99.90;;;;;;6215914;23;20432;-85
2021/05/17 14:33:07;;;;;;;25.80;20.67;;;12.60;99.90;;;;;;6225480;23;20911;-85
2021/05/17 14:35:33;;;;;;;46.83;42.87;;;12.30;99.90;;;;;;6223795;23;20462;-84
2021/05/17 14:38:00;;;;;;;45.37;41.37;;;12.10;99.90;;;;;;6215348;23;20511;-84
2021/05/17 14:40:30;;;;;;;26.00;15.63;;;12.00;99.90;;;;;;6215881;23;20419;-84
2021/05/17 14:42:58;;;;;;;20.67;11.77;;;11.60;99.90;;;;;;6215815;23;20408;-85
2021/05/17 14:45:25;;;;;;;20.97;10.60;;;11.60;99.90;;;;;;6225866;23;20408;-84
2021/05/17 14:47:51;;;;;;;24.30;22.03;;;11.20;99.90;;;;;;6225557;23;20401;-84
2021/05/17 14:50:17;;;;;;;34.97;32.20;;;11.10;99.90;;;;;;6214041;23;20415;-84
2021/05/17 14:52:45;;;;;;;29.43;27.00;;;11.30;99.90;;;;;;6215732;23;20412;-84
2021/05/17 14:55:46;;;;;;;26.60;24.07;;;11.30;99.90;;;;;;6225455;23;20408;-86
2021/05/17 14:58:21;;;;;;;88.60;84.13;;;11.60;99.90;;;;;;6210614;23;20501;-86
2021/05/17 15:01:25;;;;;;;;;;;;;;;;;;;;;
2021/05/17 15:04:03;;;;;;;150.57;144.27;;;11.80;99.90;;;;;;6110105;23;20474;-85
2021/05/17 15:06:29;;;;;;;113.70;108.10;;;11.70;99.90;;;;;;6217623;23;20396;-84
2021/05/17 15:09:07;;;;;;;94.57;89.50;;;12.00;99.90;;;;;;6225246;23;20775;-84
2021/05/17 15:11:50;;;;;;;111.67;106.03;;;11.90;99.90;;;;;;6225023;23;20407;-88
2021/05/17 15:54:28;;;;;;;97.93;92.93;;;12.10;99.90;;;;;;5899891;24;20431;-84
2021/05/17 16:00:42;;;;;;;96.63;91.07;;;12.00;99.90;;;;;;6002813;23;20511;-85
2021/05/17 16:03:13;;;;;;;97.77;91.97;;;12.20;99.90;;;;;;6207288;23;20420;-86
2021/05/17 16:05:46;;;;;;;97.93;91.93;;;12.10;99.90;;;;;;6214024;23;20396;-85
2021/05/17 16:08:25;;;;;;;;;;;;;;;;;;;;;
2021/05/17 16:11:16;;;;;;;44.87;40.87;;;12.60;99.90;;;;;;6123883;23;20435;-83
2021/05/17 16:13:56;;;;;;;32.63;24.47;;;13.00;99.90;;;;;;6215447;23;20407;-82
2021/05/17 16:16:44;;;;;;;30.33;24.80;;;13.40;99.90;;;;;;6225246;23;20407;-86
2021/05/17 16:32:00;;;;;;;;;;;;;;;;;;;;;
2021/05/17 16:35:06;;;;;;;28.50;8.80;;;13.40;99.90;;;;;;6210692;23;20491;-85
2021/05/17 16:38:01;;;;;;;25.37;6.13;;;13.80;99.90;;;;;;6121046;23;20422;-84
2021/05/17 16:59:57;;;;;;;;;;;;;;;;;;;;;
2021/05/17 17:11:40;;;;;;;;;;;;;;;;;;;;;
2021/05/17 17:52:02;;;;;;;;;;;;;;;;;;;;;
2021/05/17 19:16:47;;;;;;;22.10;4.10;;;11.40;99.90;;;;;;5807722;24;20419;-84
2021/05/17 19:19:56;;;;;;;;;;;;;;;;;;;;;
2021/05/17 19:23:12;;;;;;;;;;;;;;;;;;;;;
2021/05/17 19:29:24;;;;;;;17.73;3.10;;;11.00;99.90;;;;;;5962602;23;20447;-84
2021/05/17 19:51:29;;;;;;;16.00;3.20;;;10.60;99.90;;;;;;5788899;24;20429;-84
2021/05/17 20:01:21;;;;;;;;;;;;;;;;;;;;;
2021/05/17 21:29:49;;;;;;;;;;;;;;;;;;;;;
2021/05/17 21:36:33;;;;;;;;;;;;;;;;;;;;;
2021/05/17 21:42:47;;;;;;;23.60;19.40;;;8.50;99.90;;;;;;5870576;23;20499;-84
2021/05/17 21:49:12;;;;;;;;;;;;;;;;;;;;;
2021/05/17 22:14:59;;;;;;;;;;;;;;;;;;;;;
2021/05/17 22:22:26;;;;;;;;;;;;;;;;;;;;;
2021/05/17 22:30:48;;;;;;;20.23;8.57;;;9.80;99.90;;;;;;5852695;24;20418;-83
2021/05/17 23:00:00;;;;;;;28.23;23.10;;;8.60;99.90;;;;;;6052925;23;20495;-84
2021/05/17 23:03:08;;;;;;;;;;;;;;;;;;;;;
2021/05/17 23:06:23;;;;;;;34.57;31.10;;;8.50;99.90;;;;;;6064054;23;20412;-84
2021/05/17 23:12:50;;;;;;;;;;;;;;;;;;;;;
2021/05/17 23:29:18;;;;;;;43.67;39.40;;;9.00;99.90;;;;;;6163019;23;20467;-84
2021/05/17 23:41:54;;;;;;;;;;;;;;;;;;;;;
2021/05/17 23:48:21;;;;;;;30.33;24.03;;;9.40;99.90;;;;;;6006805;23;20419;-83